sensor_id;sensor_type;location;lat;lon;timestamp;pressure;altitude;pressure_sealevel;temperature;humidity
10806;BME280;5455;53.224;6.000;2022-08-19T00:01:36;101409.97;;;17.21;100.00
10806;BME280;5455;53.224;6.000;2022-08-19T00:04:06;101406.78;;;17.22;100.00
10806;BME280;5455;53.224;6.000;2022-08-19T00:06:34;101405.19;;;17.25;100.00
10806;BME280;5455;53.224;6.000;2022-08-19T00:09:04;101408.38;;;17.23;100.00
10806;BME280;5455;53.224;6.000;2022-08-19T00:11:31;101410.75;;;17.25;100.00
10806;BME280;5455;53.224;6.000;2022-08-19T00:13:58;101401.19;;;17.22;100.00
10806;BME280;5455;53.224;6.000;2022-08-19T00:16:26;101389.59;;;17.13;100.00
10806;BME280;5455;53.224;6.000;2022-08-19T00:18:54;101396.78;;;17.14;100.00
10806;BME280;5455;53.224;6.000;2022-08-19T00:21:24;101394.00;;;17.14;100.00
10806;BME280;5455;53.224;6.000;2022-08-19T00:23:51;101396.38;;;17.12;100.00
10806;BME280;5455;53.224;6.000;2022-08-19T00:26:19;101399.53;;;17.11;100.00
10806;BME280;5455;53.224;6.000;2022-08-19T00:28:46;101395.56;;;17.08;100.00
10806;BME280;5455;53.224;6.000;2022-08-19T00:31:13;101389.59;;;17.06;100.00
10806;BME280;5455;53.224;6.000;2022-08-19T00:33:40;101390.38;;;17.03;100.00
10806;BME280;5455;53.224;6.000;2022-08-19T00:36:08;101383.56;;;17.00;100.00
10806;BME280;5455;53.224;6.000;2022-08-19T00:38:37;101385.16;;;16.98;100.00
10806;BME280;5455;53.224;6.000;2022-08-19T00:41:05;101378.34;;;16.92;100.00
10806;BME280;5455;53.224;6.000;2022-08-19T00:43:32;101371.16;;;16.87;100.00
10806;BME280;5455;53.224;6.000;2022-08-19T00:45:59;101367.56;;;16.87;100.00
10806;BME280;5455;53.224;6.000;2022-08-19T00:48:28;101364.75;;;16.83;100.00
10806;BME280;5455;53.224;6.000;2022-08-19T00:50:55;101370.75;;;16.82;100.00
10806;BME280;5455;53.224;6.000;2022-08-19T00:53:24;101367.94;;;16.82;100.00
10806;BME280;5455;53.224;6.000;2022-08-19T00:55:55;101368.75;;;16.86;100.00
10806;BME280;5455;53.224;6.000;2022-08-19T00:58:27;101352.44;;;16.84;100.00
10806;BME280;5455;53.224;6.000;2022-08-19T01:00:55;101360.38;;;16.82;100.00
10806;BME280;5455;53.224;6.000;2022-08-19T01:03:22;101361.16;;;16.83;100.00
10806;BME280;5455;53.224;6.000;2022-08-19T01:05:51;101354.44;;;16.84;100.00
10806;BME280;5455;53.224;6.000;2022-08-19T01:08:20;101366.75;;;16.83;100.00
10806;BME280;5455;53.224;6.000;2022-08-19T01:10:55;101371.94;;;16.84;100.00
10806;BME280;5455;53.224;6.000;2022-08-19T01:13:25;101369.13;;;16.81;100.00
10806;BME280;5455;53.224;6.000;2022-08-19T01:16:03;101367.13;;;16.78;100.00
10806;BME280;5455;53.224;6.000;2022-08-19T01:18:31;101365.50;;;16.77;100.00
10806;BME280;5455;53.224;6.000;2022-08-19T01:21:09;101359.94;;;16.73;100.00
10806;BME280;5455;53.224;6.000;2022-08-19T01:23:38;101358.34;;;16.72;100.00
10806;BME280;5455;53.224;6.000;2022-08-19T01:26:17;101364.69;;;16.69;100.00
10806;BME280;5455;53.224;6.000;2022-08-19T01:28:46;101356.31;;;16.66;100.00
10806;BME280;5455;53.224;6.000;2022-08-19T01:31:20;101355.47;;;16.62;100.00
10806;BME280;5455;53.224;6.000;2022-08-19T01:33:55;101359.88;;;16.63;100.00
10806;BME280;5455;53.224;6.000;2022-08-19T01:36:37;101353.88;;;16.57;100.00
10806;BME280;5455;53.224;6.000;2022-08-19T01:39:09;101366.09;;;16.45;100.00
10806;BME280;5455;53.224;6.000;2022-08-19T01:41:36;101366.09;;;16.45;100.00
10806;BME280;5455;53.224;6.000;2022-08-19T01:44:05;101359.31;;;16.43;100.00
10806;BME280;5455;53.224;6.000;2022-08-19T01:46:46;101363.63;;;16.40;100.00
10806;BME280;5455;53.224;6.000;2022-08-19T01:49:15;101359.69;;;16.41;100.00
10806;BME280;5455;53.224;6.000;2022-08-19T01:51:42;101361.66;;;16.41;100.00
10806;BME280;5455;53.224;6.000;2022-08-19T01:54:11;101355.69;;;16.39;100.00
10806;BME280;5455;53.224;6.000;2022-08-19T01:56:53;101356.81;;;16.34;100.00
10806;BME280;5455;53.224;6.000;2022-08-19T01:59:22;101360.78;;;16.30;100.00
10806;BME280;5455;53.224;6.000;2022-08-19T02:01:50;101362.69;;;16.22;100.00
10806;BME280;5455;53.224;6.000;2022-08-19T02:04:17;101364.69;;;16.22;100.00
10806;BME280;5455;53.224;6.000;2022-08-19T02:06:44;101374.25;;;16.24;100.00
10806;BME280;5455;53.224;6.000;2022-08-19T02:09:11;101367.06;;;16.20;100.00
10806;BME280;5455;53.224;6.000;2022-08-19T02:11:38;101373.00;;;16.18;100.00
10806;BME280;5455;53.224;6.000;2022-08-19T02:14:07;101366.25;;;16.16;100.00
10806;BME280;5455;53.224;6.000;2022-08-19T02:16:35;101365.41;;;16.12;100.00
10806;BME280;5455;53.224;6.000;2022-08-19T02:19:04;101361.44;;;16.13;100.00
10806;BME280;5455;53.224;6.000;2022-08-19T02:21:32;101365.81;;;16.14;100.00
10806;BME280;5455;53.224;6.000;2022-08-19T02:23:59;101356.25;;;16.11;100.00
10806;BME280;5455;53.224;6.000;2022-08-19T02:26:26;101355.44;;;16.11;100.00
10806;BME280;5455;53.224;6.000;2022-08-19T02:28:54;101352.66;;;16.07;100.00
10806;BME280;5455;53.224;6.000;2022-08-19T02:31:24;101352.22;;;16.05;100.00
10806;BME280;5455;53.224;6.000;2022-08-19T02:33:51;101351.78;;;15.99;100.00
10806;BME280;5455;53.224;6.000;2022-08-19T02:36:24;101352.50;;;15.93;100.00
10806;BME280;5455;53.224;6.000;2022-08-19T02:38:51;101357.25;;;15.92;100.00
10806;BME280;5455;53.224;6.000;2022-08-19T02:41:27;101366.03;;;15.94;100.00
10806;BME280;5455;53.224;6.000;2022-08-19T02:43:55;101362.44;;;15.94;100.00
10806;BME280;5455;53.224;6.000;2022-08-19T02:46:47;101372.81;;;15.97;100.00
10806;BME280;5455;53.224;6.000;2022-08-19T02:49:18;101373.66;;;16.05;100.00
10806;BME280;5455;53.224;6.000;2022-08-19T02:51:45;101373.31;;;16.06;100.00
10806;BME280;5455;53.224;6.000;2022-08-19T02:54:13;101367.34;;;16.08;100.00
10806;BME280;5455;53.224;6.000;2022-08-19T02:56:42;101375.69;;;16.08;100.00
10806;BME280;5455;53.224;6.000;2022-08-19T02:59:10;101376.50;;;16.08;100.00
10806;BME280;5455;53.224;6.000;2022-08-19T03:01:40;101376.88;;;16.07;100.00
10806;BME280;5455;53.224;6.000;2022-08-19T03:04:11;101369.34;;;16.07;100.00
10806;BME280;5455;53.224;6.000;2022-08-19T03:06:42;101365.03;;;16.13;100.00
10806;BME280;5455;53.224;6.000;2022-08-19T03:09:10;101370.63;;;16.20;100.00
10806;BME280;5455;53.224;6.000;2022-08-19T03:11:38;101357.16;;;16.26;100.00
10806;BME280;5455;53.224;6.000;2022-08-19T03:14:07;101358.41;;;16.32;100.00
10806;BME280;5455;53.224;6.000;2022-08-19T03:16:41;101359.97;;;16.29;100.00
10806;BME280;5455;53.224;6.000;2022-08-19T03:19:08;101358.00;;;16.30;100.00
10806;BME280;5455;53.224;6.000;2022-08-19T03:21:36;101350.47;;;16.30;100.00
10806;BME280;5455;53.224;6.000;2022-08-19T03:24:06;101340.94;;;16.35;100.00
10806;BME280;5455;53.224;6.000;2022-08-19T03:26:34;101341.75;;;16.35;100.00
10806;BME280;5455;53.224;6.000;2022-08-19T03:29:05;101327.41;;;16.33;100.00
10806;BME280;5455;53.224;6.000;2022-08-19T03:31:34;101332.59;;;16.35;100.00
10806;BME280;5455;53.224;6.000;2022-08-19T03:34:22;101345.31;;;16.36;100.00
10806;BME280;5455;53.224;6.000;2022-08-19T03:36:49;101343.34;;;16.36;100.00
10806;BME280;5455;53.224;6.000;2022-08-19T03:39:16;101348.91;;;16.36;100.00
10806;BME280;5455;53.224;6.000;2022-08-19T03:41:44;101349.69;;;16.33;100.00
10806;BME280;5455;53.224;6.000;2022-08-19T03:44:16;101354.81;;;16.31;100.00
10806;BME280;5455;53.224;6.000;2022-08-19T03:46:47;101348.84;;;16.29;100.00
10806;BME280;5455;53.224;6.000;2022-08-19T03:49:14;101351.59;;;16.26;100.00
10806;BME280;5455;53.224;6.000;2022-08-19T03:51:45;101350.78;;;16.25;100.00
10806;BME280;5455;53.224;6.000;2022-08-19T03:54:13;101350.34;;;16.20;100.00
10806;BME280;5455;53.224;6.000;2022-08-19T03:56:43;101353.91;;;16.17;100.00
10806;BME280;5455;53.224;6.000;2022-08-19T03:59:14;101357.09;;;16.15;100.00
10806;BME280;5455;53.224;6.000;2022-08-19T04:01:42;101351.88;;;16.14;100.00
10806;BME280;5455;53.224;6.000;2022-08-19T04:04:10;101358.66;;;16.16;100.00
10806;BME280;5455;53.224;6.000;2022-08-19T04:06:38;101343.97;;;16.19;100.00
10806;BME280;5455;53.224;6.000;2022-08-19T04:09:08;101357.91;;;16.19;100.00
10806;BME280;5455;53.224;6.000;2022-08-19T04:11:47;101349.56;;;16.19;100.00
10806;BME280;5455;53.224;6.000;2022-08-19T04:14:17;101348.41;;;16.24;100.00
10806;BME280;5455;53.224;6.000;2022-08-19T04:16:46;101348.03;;;16.29;100.00
10806;BME280;5455;53.224;6.000;2022-08-19T04:19:15;101344.13;;;16.33;100.00
10806;BME280;5455;53.224;6.000;2022-08-19T04:21:44;101345.28;;;16.32;100.00
10806;BME280;5455;53.224;6.000;2022-08-19T04:24:13;101345.72;;;16.38;100.00
10806;BME280;5455;53.224;6.000;2022-08-19T04:26:41;101339.34;;;16.37;100.00
10806;BME280;5455;53.224;6.000;2022-08-19T04:29:11;101342.13;;;16.34;100.00
10806;BME280;5455;53.224;6.000;2022-08-19T04:31:40;101339.78;;;16.39;100.00
10806;BME280;5455;53.224;6.000;2022-08-19T04:34:09;101341.81;;;16.42;100.00
10806;BME280;5455;53.224;6.000;2022-08-19T04:36:39;101337.03;;;16.46;100.00
10806;BME280;5455;53.224;6.000;2022-08-19T04:39:15;101339.88;;;16.53;100.00
10806;BME280;5455;53.224;6.000;2022-08-19T04:41:43;101341.13;;;16.56;100.00
10806;BME280;5455;53.224;6.000;2022-08-19T04:44:34;101335.19;;;16.58;100.00
10806;BME280;5455;53.224;6.000;2022-08-19T04:47:10;101334.38;;;16.57;100.00
10806;BME280;5455;53.224;6.000;2022-08-19T04:49:37;101327.63;;;16.58;100.00
10806;BME280;5455;53.224;6.000;2022-08-19T04:52:04;101332.81;;;16.63;100.00
10806;BME280;5455;53.224;6.000;2022-08-19T04:54:31;101325.28;;;16.67;100.00
10806;BME280;5455;53.224;6.000;2022-08-19T04:57:09;101336.44;;;16.71;100.00
10806;BME280;5455;53.224;6.000;2022-08-19T04:59:37;101336.47;;;16.74;100.00
10806;BME280;5455;53.224;6.000;2022-08-19T05:02:07;101334.06;;;16.73;100.00
10806;BME280;5455;53.224;6.000;2022-08-19T05:04:35;101327.31;;;16.74;100.00
10806;BME280;5455;53.224;6.000;2022-08-19T05:07:06;101330.53;;;16.79;100.00
10806;BME280;5455;53.224;6.000;2022-08-19T05:09:34;101324.59;;;16.84;100.00
10806;BME280;5455;53.224;6.000;2022-08-19T05:12:21;101326.59;;;16.87;100.00
10806;BME280;5455;53.224;6.000;2022-08-19T05:14:54;101329.81;;;16.93;100.00
10806;BME280;5455;53.224;6.000;2022-08-19T05:17:24;101332.22;;;16.98;100.00
10806;BME280;5455;53.224;6.000;2022-08-19T05:19:55;101331.06;;;17.02;100.00
10806;BME280;5455;53.224;6.000;2022-08-19T05:22:42;101332.25;;;17.05;100.00
10806;BME280;5455;53.224;6.000;2022-08-19T05:25:15;101333.06;;;17.13;100.00
10806;BME280;5455;53.224;6.000;2022-08-19T05:27:42;101331.13;;;17.20;100.00
10806;BME280;5455;53.224;6.000;2022-08-19T05:30:10;101332.72;;;17.28;100.00
10806;BME280;5455;53.224;6.000;2022-08-19T05:32:39;101337.53;;;17.35;100.00
10806;BME280;5455;53.224;6.000;2022-08-19T05:35:06;101339.16;;;17.39;100.00
10806;BME280;5455;53.224;6.000;2022-08-19T05:37:33;101334.38;;;17.47;100.00
10806;BME280;5455;53.224;6.000;2022-08-19T05:40:01;101347.19;;;17.55;100.00
10806;BME280;5455;53.224;6.000;2022-08-19T05:42:28;101344.81;;;17.60;100.00
10806;BME280;5455;53.224;6.000;2022-08-19T05:44:55;101329.69;;;17.69;100.00
10806;BME280;5455;53.224;6.000;2022-08-19T05:47:22;101332.09;;;17.77;100.00
10806;BME280;5455;53.224;6.000;2022-08-19T05:49:49;101330.53;;;17.87;100.00
10806;BME280;5455;53.224;6.000;2022-08-19T05:52:18;101328.94;;;17.93;100.00
10806;BME280;5455;53.224;6.000;2022-08-19T05:54:52;101328.16;;;17.99;100.00
10806;BME280;5455;53.224;6.000;2022-08-19T05:57:22;101331.72;;;18.10;100.00
10806;BME280;5455;53.224;6.000;2022-08-19T05:59:50;101336.13;;;18.18;100.00
10806;BME280;5455;53.224;6.000;2022-08-19T06:02:25;101332.13;;;18.27;100.00
10806;BME280;5455;53.224;6.000;2022-08-19T06:04:53;101330.53;;;18.36;100.00
10806;BME280;5455;53.224;6.000;2022-08-19T06:07:19;101322.53;;;18.45;100.00
10806;BME280;5455;53.224;6.000;2022-08-19T06:09:47;101322.94;;;18.54;100.00
10806;BME280;5455;53.224;6.000;2022-08-19T06:12:29;101318.91;;;18.66;100.00
10806;BME280;5455;53.224;6.000;2022-08-19T06:15:04;101320.53;;;18.74;100.00
10806;BME280;5455;53.224;6.000;2022-08-19T06:17:31;101315.31;;;18.83;100.00
10806;BME280;5455;53.224;6.000;2022-08-19T06:19:58;101313.28;;;18.91;100.00
10806;BME280;5455;53.224;6.000;2022-08-19T06:22:26;101312.84;;;18.96;100.00
10806;BME280;5455;53.224;6.000;2022-08-19T06:24:54;101318.44;;;18.96;100.00
10806;BME280;5455;53.224;6.000;2022-08-19T06:27:22;101316.44;;;19.00;100.00
10806;BME280;5455;53.224;6.000;2022-08-19T06:29:49;101327.97;;;19.09;100.00
10806;BME280;5455;53.224;6.000;2022-08-19T06:32:17;101329.53;;;19.17;100.00
10806;BME280;5455;53.224;6.000;2022-08-19T06:34:45;101334.31;;;19.23;100.00
10806;BME280;5455;53.224;6.000;2022-08-19T06:37:13;101331.09;;;19.29;100.00
10806;BME280;5455;53.224;6.000;2022-08-19T06:39:42;101336.25;;;19.37;100.00
10806;BME280;5455;53.224;6.000;2022-08-19T06:42:11;101334.22;;;19.45;100.00
10806;BME280;5455;53.224;6.000;2022-08-19T06:44:41;101333.41;;;19.48;100.00
10806;BME280;5455;53.224;6.000;2022-08-19T06:47:17;101336.19;;;19.55;100.00
10806;BME280;5455;53.224;6.000;2022-08-19T06:49:53;101336.91;;;19.66;100.00
10806;BME280;5455;53.224;6.000;2022-08-19T06:52:26;101336.88;;;19.73;100.00
10806;BME280;5455;53.224;6.000;2022-08-19T06:54:54;101336.78;;;19.84;100.00
10806;BME280;5455;53.224;6.000;2022-08-19T06:57:25;101336.75;;;19.91;100.00
10806;BME280;5455;53.224;6.000;2022-08-19T06:59:53;101331.94;;;19.95;100.00
10806;BME280;5455;53.224;6.000;2022-08-19T07:02:20;101329.03;;;20.05;100.00
10806;BME280;5455;53.224;6.000;2022-08-19T07:04:47;101326.19;;;20.12;100.00
10806;BME280;5455;53.224;6.000;2022-08-19T07:07:19;101322.94;;;20.17;100.00
10806;BME280;5455;53.224;6.000;2022-08-19T07:09:49;101313.28;;;20.25;100.00
10806;BME280;5455;53.224;6.000;2022-08-19T07:12:28;101306.38;;;20.37;100.00
10806;BME280;5455;53.224;6.000;2022-08-19T07:14:57;101310.75;;;20.42;100.00
10806;BME280;5455;53.224;6.000;2022-08-19T07:17:24;101312.66;;;20.52;100.00
10806;BME280;5455;53.224;6.000;2022-08-19T07:19:52;101322.13;;;20.61;100.00
10806;BME280;5455;53.224;6.000;2022-08-19T07:22:20;101319.25;;;20.72;100.00
10806;BME280;5455;53.224;6.000;2022-08-19T07:24:51;101332.31;;;20.82;100.00
10806;BME280;5455;53.224;6.000;2022-08-19T07:27:19;101323.34;;;20.98;100.00
10806;BME280;5455;53.224;6.000;2022-08-19T07:29:52;101328.09;;;21.01;100.00
10806;BME280;5455;53.224;6.000;2022-08-19T07:32:22;101332.47;;;21.09;100.00
10806;BME280;5455;53.224;6.000;2022-08-19T07:34:49;101339.53;;;21.20;100.00
10806;BME280;5455;53.224;6.000;2022-08-19T07:37:16;101341.47;;;21.27;100.00
10806;BME280;5455;53.224;6.000;2022-08-19T07:39:43;101336.50;;;21.38;100.00
10806;BME280;5455;53.224;6.000;2022-08-19T07:42:10;101335.44;;;21.55;100.00
10806;BME280;5455;53.224;6.000;2022-08-19T07:44:39;101334.50;;;21.65;100.00
10806;BME280;5455;53.224;6.000;2022-08-19T07:47:07;101333.50;;;21.79;100.00
10806;BME280;5455;53.224;6.000;2022-08-19T07:49:54;101343.00;;;21.88;100.00
10806;BME280;5455;53.224;6.000;2022-08-19T07:52:21;101342.91;;;21.95;100.00
10806;BME280;5455;53.224;6.000;2022-08-19T07:54:48;101340.81;;;22.00;100.00
10806;BME280;5455;53.224;6.000;2022-08-19T07:57:16;101341.53;;;22.07;100.00
10806;BME280;5455;53.224;6.000;2022-08-19T07:59:44;101348.19;;;22.17;100.00
10806;BME280;5455;53.224;6.000;2022-08-19T08:02:12;101345.13;;;22.31;100.00
10806;BME280;5455;53.224;6.000;2022-08-19T08:04:39;101351.75;;;22.44;100.00
10806;BME280;5455;53.224;6.000;2022-08-19T08:07:25;101354.47;;;22.47;100.00
10806;BME280;5455;53.224;6.000;2022-08-19T08:10:12;101355.44;;;22.61;100.00
10806;BME280;5455;53.224;6.000;2022-08-19T08:12:47;101360.13;;;22.71;100.00
10806;BME280;5455;53.224;6.000;2022-08-19T08:15:34;101358.03;;;22.75;100.00
10806;BME280;5455;53.224;6.000;2022-08-19T08:18:08;101354.22;;;22.85;100.00
10806;BME280;5455;53.224;6.000;2022-08-19T08:20:35;101351.56;;;22.97;100.00
10806;BME280;5455;53.224;6.000;2022-08-19T08:23:02;101359.56;;;22.99;100.00
10806;BME280;5455;53.224;6.000;2022-08-19T08:25:49;101364.72;;;23.04;100.00
10806;BME280;5455;53.224;6.000;2022-08-19T08:28:17;101372.41;;;23.20;100.00
10806;BME280;5455;53.224;6.000;2022-08-19T08:30:45;101368.59;;;23.30;100.00
10806;BME280;5455;53.224;6.000;2022-08-19T08:33:19;101372.47;;;23.36;99.28
10806;BME280;5455;53.224;6.000;2022-08-19T08:36:08;101380.44;;;23.41;100.00
10806;BME280;5455;53.224;6.000;2022-08-19T08:38:36;101380.56;;;23.53;99.14
10806;BME280;5455;53.224;6.000;2022-08-19T08:41:16;101394.13;;;23.78;98.14
10806;BME280;5455;53.224;6.000;2022-08-19T08:43:48;101388.84;;;23.80;96.32
10806;BME280;5455;53.224;6.000;2022-08-19T08:46:19;101391.66;;;23.80;95.40
10806;BME280;5455;53.224;6.000;2022-08-19T08:49:06;101392.03;;;23.82;96.20
10806;BME280;5455;53.224;6.000;2022-08-19T08:51:51;101398.31;;;24.06;96.06
10806;BME280;5455;53.224;6.000;2022-08-19T08:54:30;101392.09;;;24.31;94.79
10806;BME280;5455;53.224;6.000;2022-08-19T08:57:00;101396.69;;;24.57;94.94
10806;BME280;5455;53.224;6.000;2022-08-19T08:59:36;101406.81;;;24.87;93.46
10806;BME280;5455;53.224;6.000;2022-08-19T09:02:04;101404.81;;;25.00;91.04
10806;BME280;5455;53.224;6.000;2022-08-19T09:04:31;101407.28;;;24.98;89.79
10806;BME280;5455;53.224;6.000;2022-08-19T09:07:22;101408.41;;;25.16;89.43
10806;BME280;5455;53.224;6.000;2022-08-19T09:15:38;101411.63;;;25.85;83.67
10806;BME280;5455;53.224;6.000;2022-08-19T09:18:08;101403.97;;;25.98;83.47
10806;BME280;5455;53.224;6.000;2022-08-19T09:20:40;101407.91;;;25.88;82.50
10806;BME280;5455;53.224;6.000;2022-08-19T09:23:08;101400.91;;;25.80;83.47
10806;BME280;5455;53.224;6.000;2022-08-19T09:25:37;101405.19;;;25.97;83.40
10806;BME280;5455;53.224;6.000;2022-08-19T09:28:06;101410.31;;;26.15;82.72
10806;BME280;5455;53.224;6.000;2022-08-19T09:30:52;101419.25;;;26.13;81.33
10806;BME280;5455;53.224;6.000;2022-08-19T09:33:19;101418.56;;;26.35;80.67
10806;BME280;5455;53.224;6.000;2022-08-19T09:35:46;101418.31;;;26.42;78.44
10806;BME280;5455;53.224;6.000;2022-08-19T09:38:20;101408.22;;;26.53;77.62
10806;BME280;5455;53.224;6.000;2022-08-19T09:40:48;101419.00;;;26.46;77.33
10806;BME280;5455;53.224;6.000;2022-08-19T09:43:17;101411.56;;;26.26;76.46
10806;BME280;5455;53.224;6.000;2022-08-19T09:46:00;101409.03;;;26.54;78.37
10806;BME280;5455;53.224;6.000;2022-08-19T09:48:28;101407.56;;;26.96;77.59
10806;BME280;5455;53.224;6.000;2022-08-19T09:51:04;101413.06;;;27.12;73.72
10806;BME280;5455;53.224;6.000;2022-08-19T09:53:32;101406.41;;;27.06;73.55
10806;BME280;5455;53.224;6.000;2022-08-19T09:55:59;101412.78;;;27.19;74.11
10806;BME280;5455;53.224;6.000;2022-08-19T09:58:32;101409.88;;;27.10;73.21
10806;BME280;5455;53.224;6.000;2022-08-19T10:01:01;101416.47;;;27.07;74.67
10806;BME280;5455;53.224;6.000;2022-08-19T10:03:31;101414.28;;;26.90;74.01
10806;BME280;5455;53.224;6.000;2022-08-19T10:05:59;101411.50;;;26.64;74.17
10806;BME280;5455;53.224;6.000;2022-08-19T10:08:30;101411.03;;;26.66;74.78
10806;BME280;5455;53.224;6.000;2022-08-19T10:10:58;101397.66;;;26.79;73.84
10806;BME280;5455;53.224;6.000;2022-08-19T10:13:46;101407.81;;;27.23;73.52
10806;BME280;5455;53.224;6.000;2022-08-19T10:16:16;101411.91;;;27.66;70.31
10806;BME280;5455;53.224;6.000;2022-08-19T10:18:44;101397.84;;;28.15;68.74
10806;BME280;5455;53.224;6.000;2022-08-19T10:21:22;101408.28;;;28.27;66.32
10806;BME280;5455;53.224;6.000;2022-08-19T10:23:55;101404.84;;;28.50;66.34
10806;BME280;5455;53.224;6.000;2022-08-19T10:26:30;101403.19;;;28.71;65.06
10806;BME280;5455;53.224;6.000;2022-08-19T10:28:58;101403.22;;;29.07;64.11
10806;BME280;5455;53.224;6.000;2022-08-19T10:31:28;101411.88;;;28.94;63.46
10806;BME280;5455;53.224;6.000;2022-08-19T10:34:15;101412.88;;;28.52;62.80
10806;BME280;5455;53.224;6.000;2022-08-19T10:36:54;101404.78;;;27.92;66.03
10806;BME280;5455;53.224;6.000;2022-08-19T10:39:22;101396.94;;;27.96;67.70
10806;BME280;5455;53.224;6.000;2022-08-19T10:41:56;101391.72;;;27.95;67.10
10806;BME280;5455;53.224;6.000;2022-08-19T10:44:23;101393.69;;;27.76;67.07
10806;BME280;5455;53.224;6.000;2022-08-19T10:46:57;101396.31;;;27.70;68.99
10806;BME280;5455;53.224;6.000;2022-08-19T10:49:25;101392.69;;;28.01;68.13
10806;BME280;5455;53.224;6.000;2022-08-19T10:51:54;101390.78;;;28.28;67.85
10806;BME280;5455;53.224;6.000;2022-08-19T10:54:46;101396.28;;;28.23;65.25
10806;BME280;5455;53.224;6.000;2022-08-19T10:57:34;101384.25;;;28.10;65.08
10806;BME280;5455;53.224;6.000;2022-08-19T11:00:23;101393.63;;;28.37;63.95
10806;BME280;5455;53.224;6.000;2022-08-19T11:02:50;101389.88;;;28.50;62.20
10806;BME280;5455;53.224;6.000;2022-08-19T11:05:18;101392.06;;;28.45;61.20
10806;BME280;5455;53.224;6.000;2022-08-19T11:07:45;101396.16;;;28.35;61.55
10806;BME280;5455;53.224;6.000;2022-08-19T11:10:14;101393.22;;;28.08;64.38
10806;BME280;5455;53.224;6.000;2022-08-19T11:12:47;101390.63;;;28.01;64.64
10806;BME280;5455;53.224;6.000;2022-08-19T11:15:15;101392.63;;;28.22;65.17
10806;BME280;5455;53.224;6.000;2022-08-19T11:17:42;101392.63;;;28.89;65.10
10806;BME280;5455;53.224;6.000;2022-08-19T11:20:12;101389.63;;;29.11;61.60
10806;BME280;5455;53.224;6.000;2022-08-19T11:22:40;101394.84;;;28.94;61.29
10806;BME280;5455;53.224;6.000;2022-08-19T11:25:09;101389.63;;;28.75;62.29
10806;BME280;5455;53.224;6.000;2022-08-19T11:27:41;101387.00;;;28.31;61.80
10806;BME280;5455;53.224;6.000;2022-08-19T11:30:11;101381.09;;;28.08;64.79
10806;BME280;5455;53.224;6.000;2022-08-19T11:32:41;101383.78;;;28.11;65.30
10806;BME280;5455;53.224;6.000;2022-08-19T11:35:15;101386.28;;;28.09;65.36
10806;BME280;5455;53.224;6.000;2022-08-19T11:37:43;101376.41;;;28.23;65.51
10806;BME280;5455;53.224;6.000;2022-08-19T11:40:10;101378.59;;;28.19;64.39
10806;BME280;5455;53.224;6.000;2022-08-19T11:42:38;101378.44;;;27.82;65.24
10806;BME280;5455;53.224;6.000;2022-08-19T11:45:25;101388.91;;;27.64;65.02
10806;BME280;5455;53.224;6.000;2022-08-19T11:47:53;101387.41;;;27.50;66.18
10806;BME280;5455;53.224;6.000;2022-08-19T11:50:20;101380.53;;;27.38;66.41
10806;BME280;5455;53.224;6.000;2022-08-19T11:52:47;101385.41;;;27.38;67.45
10806;BME280;5455;53.224;6.000;2022-08-19T11:55:16;101377.47;;;27.46;67.71
10806;BME280;5455;53.224;6.000;2022-08-19T11:57:43;101383.75;;;27.50;67.31
10806;BME280;5455;53.224;6.000;2022-08-19T12:00:11;101385.28;;;27.63;67.54
10806;BME280;5455;53.224;6.000;2022-08-19T12:02:40;101386.22;;;27.60;67.78
10806;BME280;5455;53.224;6.000;2022-08-19T12:05:07;101391.22;;;27.56;67.77
10806;BME280;5455;53.224;6.000;2022-08-19T12:07:39;101392.34;;;27.89;67.42
10806;BME280;5455;53.224;6.000;2022-08-19T12:10:06;101387.06;;;28.10;65.40
10806;BME280;5455;53.224;6.000;2022-08-19T12:12:34;101397.88;;;28.33;64.77
10806;BME280;5455;53.224;6.000;2022-08-19T12:15:01;101393.25;;;28.17;62.89
10806;BME280;5455;53.224;6.000;2022-08-19T12:17:28;101400.66;;;28.15;63.22
10806;BME280;5455;53.224;6.000;2022-08-19T12:19:57;101401.44;;;28.64;61.49
10806;BME280;5455;53.224;6.000;2022-08-19T12:22:24;101406.69;;;28.84;59.41
10806;BME280;5455;53.224;6.000;2022-08-19T12:24:51;101410.00;;;29.01;58.70
10806;BME280;5455;53.224;6.000;2022-08-19T12:27:19;101414.72;;;29.13;57.89
10806;BME280;5455;53.224;6.000;2022-08-19T12:30:09;101407.00;;;29.04;58.97
10806;BME280;5455;53.224;6.000;2022-08-19T12:32:36;101410.91;;;28.70;59.48
10806;BME280;5455;53.224;6.000;2022-08-19T12:35:04;101394.38;;;28.69;59.48
10806;BME280;5455;53.224;6.000;2022-08-19T12:37:32;101399.72;;;28.76;60.50
10806;BME280;5455;53.224;6.000;2022-08-19T12:39:59;101399.81;;;28.63;59.71
10806;BME280;5455;53.224;6.000;2022-08-19T12:42:26;101396.19;;;28.44;60.31
10806;BME280;5455;53.224;6.000;2022-08-19T12:44:53;101402.00;;;28.41;59.62
10806;BME280;5455;53.224;6.000;2022-08-19T12:47:20;101402.63;;;28.36;60.21
10806;BME280;5455;53.224;6.000;2022-08-19T12:49:48;101390.28;;;28.21;62.07
10806;BME280;5455;53.224;6.000;2022-08-19T12:52:22;101389.59;;;28.08;62.78
10806;BME280;5455;53.224;6.000;2022-08-19T12:54:51;101394.22;;;27.92;64.88
10806;BME280;5455;53.224;6.000;2022-08-19T12:57:24;101397.81;;;27.84;64.48
10806;BME280;5455;53.224;6.000;2022-08-19T13:02:39;101399.06;;;27.30;70.57
10806;BME280;5455;53.224;6.000;2022-08-19T13:05:10;101391.00;;;27.07;71.87
10806;BME280;5455;53.224;6.000;2022-08-19T13:07:39;101388.63;;;27.06;73.67
10806;BME280;5455;53.224;6.000;2022-08-19T13:10:08;101397.00;;;27.09;73.62
10806;BME280;5455;53.224;6.000;2022-08-19T13:12:35;101389.81;;;27.17;74.61
10806;BME280;5455;53.224;6.000;2022-08-19T13:15:03;101392.34;;;27.15;73.96
10806;BME280;5455;53.224;6.000;2022-08-19T13:17:37;101387.97;;;27.02;73.93
10806;BME280;5455;53.224;6.000;2022-08-19T13:20:05;101387.25;;;26.89;74.93